Time;durP1;ratioP1;P1;durP2;ratioP2;P2;SDS_P1;SDS_P2;PMS_P1;PMS_P2;Temp;Humidity;BMP_temperature;BMP_pressure;BME280_temperature;BME280_humidity;BME280_pressure;Samples;Min_cycle;Max_cycle;Signal;HPM_P1;HPM_P2
2023/02/09 00:00:06;;;;;;;;;;;2.60;87.00;;;;;;4999673;28;20392;-80
2023/02/09 00:02:32;;;;;;;;;;;2.60;87.10;;;;;;4995985;28;19952;-78
2023/02/09 00:04:58;;;;;;;;;;;2.50;87.30;;;;;;4992112;28;19983;-81
2023/02/09 00:07:24;;;;;;;;;;;2.50;87.30;;;;;;4990748;28;19925;-81
2023/02/09 00:09:50;;;;;;;;;;;2.50;87.20;;;;;;4991116;28;19917;-81
2023/02/09 00:15:00;;;;;;;;;;;2.40;87.80;;;;;;4997456;28;19920;-79
2023/02/09 00:17:25;;;;;;;;;;;2.40;87.80;;;;;;4994882;28;19913;-78
2023/02/09 00:19:52;;;;;;;;;;;2.30;87.80;;;;;;5000321;28;19910;-79
2023/02/09 00:22:18;;;;;;;;;;;2.30;88.10;;;;;;5003641;28;19922;-78
2023/02/09 00:24:44;;;;;;;;;;;2.20;88.30;;;;;;5001706;28;19919;-79
2023/02/09 00:27:09;;;;;;;;;;;2.20;88.30;;;;;;5002230;28;20862;-79
2023/02/09 00:29:35;;;;;;;;;;;2.20;88.70;;;;;;4984577;28;19929;-81
2023/02/09 00:32:00;;;;;;;;;;;2.10;89.00;;;;;;4994195;28;19980;-79
2023/02/09 00:34:26;;;;;;;;;;;2.10;89.50;;;;;;5001087;28;20029;-80
2023/02/09 00:36:52;;;;;;;;;;;2.10;89.40;;;;;;4998356;28;19955;-78
2023/02/09 00:39:17;;;;;;;;;;;2.10;89.40;;;;;;4998164;28;20392;-80
2023/02/09 00:44:27;;;;;;;;;;;2.10;89.60;;;;;;4995184;28;19993;-81
2023/02/09 00:46:52;;;;;;;;;;;2.00;89.90;;;;;;5001262;28;19913;-77
2023/02/09 00:49:19;;;;;;;;;;;2.00;90.00;;;;;;4978866;28;20368;-78
2023/02/09 00:51:45;;;;;;;;;;;2.00;90.10;;;;;;5002158;28;19917;-81
2023/02/09 00:54:11;;;;;;;;;;;1.90;90.10;;;;;;4983046;28;19913;-77
2023/02/09 00:56:37;;;;;;;;;;;1.80;90.20;;;;;;4997478;28;19991;-82
2023/02/09 00:59:03;;;;;;;;;;;1.70;90.40;;;;;;5000599;28;19917;-82
2023/02/09 01:01:28;;;;;;;;;;;1.80;90.50;;;;;;5003536;28;19967;-77
2023/02/09 01:03:54;;;;;;;;;;;1.80;90.50;;;;;;5003578;28;20432;-80
2023/02/09 01:06:20;;;;;;;;;;;1.70;90.60;;;;;;4998644;28;19914;-78
2023/02/09 01:08:45;;;;;;;;;;;1.70;90.70;;;;;;4997583;28;20444;-79
2023/02/09 01:11:12;;;;;;;;;;;1.70;90.60;;;;;;4998209;28;19917;-81
2023/02/09 01:13:38;;;;;;;;;;;1.70;90.60;;;;;;5000664;28;19921;-80
2023/02/09 01:16:06;;;;;;;;;;;1.70;90.60;;;;;;4995309;28;19917;-78
2023/02/09 01:18:32;;;;;;;;;;;1.70;90.60;;;;;;4999483;28;19914;-78
2023/02/09 01:20:57;;;;;;;;;;;1.60;90.70;;;;;;4992856;28;20358;-79
2023/02/09 01:23:23;;;;;;;;;;;1.60;90.90;;;;;;4993068;28;20012;-80
2023/02/09 01:25:49;;;;;;;;;;;1.60;91.00;;;;;;4985183;28;19983;-77
2023/02/09 01:28:14;;;;;;;;;;;1.60;91.00;;;;;;5001750;28;19913;-79
2023/02/09 01:30:40;;;;;;;;;;;1.70;91.00;;;;;;4986846;28;20373;-80
2023/02/09 01:33:05;;;;;;;;;;;1.60;91.10;;;;;;5002328;28;19961;-77
2023/02/09 01:35:31;;;;;;;;;;;1.70;91.10;;;;;;5003758;28;20546;-79
2023/02/09 01:37:57;;;;;;;;;;;1.70;91.00;;;;;;5001220;28;19920;-77
2023/02/09 01:40:22;;;;;;;;;;;1.70;91.00;;;;;;4989727;28;19949;-78
2023/02/09 01:42:48;;;;;;;;;;;1.60;91.10;;;;;;5000106;28;19963;-78
2023/02/09 01:45:21;;;;;;;;;;;1.60;91.20;;;;;;5003390;28;19909;-77
2023/02/09 01:47:53;;;;;;;;;;;1.60;91.60;;;;;;4994826;28;19909;-77
2023/02/09 01:50:19;;;;;;;;;;;1.60;91.40;;;;;;4996140;28;20439;-77
2023/02/09 01:52:45;;;;;;;;;;;1.70;91.30;;;;;;4998037;28;20001;-78
2023/02/09 01:55:12;;;;;;;;;;;1.60;91.40;;;;;;4996038;28;19913;-83
2023/02/09 01:57:41;;;;;;;;;;;1.70;91.30;;;;;;5000270;28;19913;-79
2023/02/09 02:00:08;;;;;;;;;;;1.70;91.30;;;;;;5000491;28;19918;-78
2023/02/09 02:02:34;;;;;;;;;;;1.80;91.20;;;;;;4988798;28;19921;-78
2023/02/09 02:05:00;;;;;;;;;;;1.80;91.20;;;;;;5002798;28;19913;-80
2023/02/09 02:07:28;;;;;;;;;;;1.70;91.30;;;;;;4991792;28;19920;-78
2023/02/09 02:09:54;;;;;;;;;;;1.80;91.20;;;;;;4990570;28;19917;-81
2023/02/09 02:12:19;;;;;;;;;;;1.80;91.20;;;;;;4998025;28;19924;-79
2023/02/09 02:20:54;;;;;;;;;;;1.60;91.70;;;;;;4990151;28;19956;-78
2023/02/09 02:23:20;;;;;;;;;;;1.70;91.50;;;;;;4996215;28;19921;-81
2023/02/09 02:25:57;;;;;;;;;;;1.60;91.80;;;;;;4995629;28;20560;-79
2023/02/09 02:28:22;;;;;;;;;;;1.70;91.80;;;;;;4999416;28;19916;-80
2023/02/09 02:30:57;;;;;;;;;;;1.60;92.00;;;;;;5002063;28;19943;-79
2023/02/09 02:33:41;;;;;;;;;;;1.70;91.70;;;;;;4989661;28;19913;-78
2023/02/09 02:36:12;;;;;;;;;;;1.70;91.80;;;;;;4996554;28;20365;-81
2023/02/09 02:38:42;;;;;;;;;;;1.70;91.90;;;;;;4986010;28;19914;-80
2023/02/09 02:41:19;;;;;;;;;;;1.70;91.80;;;;;;4996446;28;19914;-77
2023/02/09 02:44:00;;;;;;;;;;;1.70;92.10;;;;;;4986049;28;20024;-79
2023/02/09 02:46:32;;;;;;;;;;;1.80;91.80;;;;;;4995356;28;19948;-80
2023/02/09 02:49:02;;;;;;;;;;;1.80;91.70;;;;;;4984220;28;19922;-81
2023/02/09 02:51:34;;;;;;;;;;;1.90;91.50;;;;;;4989508;28;20007;-79
2023/02/09 02:54:01;;;;;;;;;;;1.90;91.30;;;;;;4995952;28;20633;-81
2023/02/09 02:56:38;;;;;;;;;;;1.90;91.40;;;;;;4993606;28;19909;-78
2023/02/09 02:59:06;;;;;;;;;;;1.80;91.50;;;;;;4990673;28;19937;-78
2023/02/09 03:01:42;;;;;;;;;;;1.80;91.60;;;;;;4989309;28;19937;-79
2023/02/09 03:04:09;;;;;;;;;;;1.80;91.50;;;;;;4994122;28;19917;-79
2023/02/09 03:06:35;;;;;;;;;;;1.80;91.60;;;;;;4997583;28;19913;-78
2023/02/09 03:09:02;;;;;;;;;;;1.80;91.90;;;;;;4971495;28;19918;-85
2023/02/09 03:11:30;;;;;;;;;;;1.70;92.20;;;;;;4987962;28;19956;-78
2023/02/09 03:14:07;;;;;;;;;;;1.60;92.40;;;;;;4974203;28;20347;-81
2023/02/09 03:16:36;;;;;;;;;;;1.50;92.60;;;;;;4989677;28;20296;-81
2023/02/09 03:19:01;;;;;;;;;;;1.60;92.30;;;;;;5000503;28;19924;-82
2023/02/09 03:21:38;;;;;;;;;;;1.60;92.20;;;;;;4999306;28;19921;-78
2023/02/09 03:24:26;;;;;;;;;;;1.60;92.20;;;;;;4998799;28;19921;-78
2023/02/09 03:27:15;;;;;;;;;;;1.50;92.30;;;;;;4980072;28;20305;-80
2023/02/09 03:29:42;;;;;;;;;;;1.60;92.30;;;;;;4989918;28;20324;-82
2023/02/09 03:32:08;;;;;;;;;;;1.50;92.30;;;;;;4996717;28;19917;-79
2023/02/09 03:34:34;;;;;;;;;;;1.60;92.40;;;;;;4999786;28;19920;-79
2023/02/09 03:37:23;;;;;;;;;;;1.60;92.40;;;;;;4998476;28;19919;-78
2023/02/09 03:39:48;;;;;;;;;;;1.60;92.30;;;;;;5000130;28;20701;-78
2023/02/09 03:42:14;;;;;;;;;;;1.70;92.20;;;;;;4994222;28;19909;-78
2023/02/09 03:44:40;;;;;;;;;;;1.70;92.20;;;;;;4996919;28;19921;-79
2023/02/09 03:47:06;;;;;;;;;;;1.60;92.40;;;;;;4993769;28;19909;-81
2023/02/09 03:49:33;;;;;;;;;;;1.70;92.20;;;;;;5000578;28;19927;-78
2023/02/09 03:52:00;;;;;;;;;;;1.80;92.20;;;;;;4996821;28;19917;-81
2023/02/09 03:54:26;;;;;;;;;;;1.70;92.10;;;;;;5001764;28;19909;-81
2023/02/09 03:56:52;;;;;;;;;;;1.70;92.10;;;;;;5004463;28;19913;-80
2023/02/09 03:59:17;;;;;;;;;;;1.70;92.20;;;;;;4995415;28;19925;-79
2023/02/09 04:01:43;;;;;;;;;;;1.70;92.30;;;;;;4994706;28;20412;-76
2023/02/09 04:04:09;;;;;;;;;;;1.70;92.10;;;;;;5000766;28;20372;-77
2023/02/09 04:06:35;;;;;;;;;;;1.70;92.20;;;;;;4999175;28;19913;-78
2023/02/09 04:09:01;;;;;;;;;;;1.60;92.30;;;;;;4998771;28;19920;-78
2023/02/09 04:11:26;;;;;;;;;;;1.60;92.40;;;;;;5002806;28;19917;-80
2023/02/09 04:13:52;;;;;;;;;;;1.60;92.30;;;;;;4997096;28;19920;-79
2023/02/09 04:16:18;;;;;;;;;;;1.60;92.50;;;;;;4999969;28;19917;-81
2023/02/09 04:18:44;;;;;;;;;;;1.60;92.50;;;;;;4993395;28;19920;-78
2023/02/09 04:21:10;;;;;;;;;;;1.60;92.60;;;;;;4992030;28;19945;-80
2023/02/09 04:23:35;;;;;;;;;;;1.50;92.60;;;;;;4993965;28;19917;-81
2023/02/09 04:26:01;;;;;;;;;;;1.50;92.50;;;;;;4994451;28;19917;-80
2023/02/09 04:28:26;;;;;;;;;;;1.40;92.80;;;;;;4987194;28;19910;-83
2023/02/09 04:30:53;;;;;;;;;;;1.30;93.10;;;;;;4996995;28;20765;-81
2023/02/09 04:33:19;;;;;;;;;;;1.20;93.20;;;;;;4999528;28;20285;-77
2023/02/09 04:35:44;;;;;;;;;;;1.10;93.60;;;;;;5003942;28;19914;-81
2023/02/09 04:38:10;;;;;;;;;;;1.00;93.80;;;;;;4989581;28;19914;-81
2023/02/09 04:40:36;;;;;;;;;;;0.90;93.90;;;;;;4998906;28;20000;-79
2023/02/09 04:43:01;;;;;;;;;;;0.90;93.90;;;;;;5001403;28;19917;-82
2023/02/09 04:45:27;;;;;;;;;;;0.90;93.90;;;;;;4991378;28;19964;-78
2023/02/09 04:47:52;;;;;;;;;;;0.90;93.90;;;;;;4995425;28;20274;-79
2023/02/09 04:50:18;;;;;;;;;;;0.80;94.10;;;;;;4989895;28;20405;-80
2023/02/09 04:52:43;;;;;;;;;;;0.80;94.10;;;;;;4997009;28;19964;-80
2023/02/09 04:55:09;;;;;;;;;;;0.90;94.10;;;;;;4999219;28;19939;-79
2023/02/09 05:00:19;;;;;;;;;;;0.80;94.20;;;;;;4999563;28;19951;-82
2023/02/09 05:02:44;;;;;;;;;;;0.80;94.30;;;;;;4997876;28;19913;-77
2023/02/09 05:05:10;;;;;;;;;;;0.70;94.40;;;;;;4996373;28;19920;-78
2023/02/09 05:07:36;;;;;;;;;;;0.80;94.50;;;;;;5001168;28;19913;-78
2023/02/09 05:10:01;;;;;;;;;;;0.70;94.50;;;;;;4996443;28;19975;-81
2023/02/09 05:12:27;;;;;;;;;;;0.70;94.60;;;;;;5002416;28;19923;-79
2023/02/09 05:14:52;;;;;;;;;;;0.70;94.80;;;;;;4995519;28;20377;-78
2023/02/09 05:17:19;;;;;;;;;;;0.70;94.60;;;;;;5004117;28;20262;-79
2023/02/09 05:19:48;;;;;;;;;;;0.70;94.70;;;;;;4997361;28;19984;-83
2023/02/09 05:22:13;;;;;;;;;;;0.70;94.70;;;;;;4998370;28;19918;-78
2023/02/09 05:24:39;;;;;;;;;;;0.70;94.70;;;;;;4997831;28;19959;-77
2023/02/09 05:27:05;;;;;;;;;;;0.70;94.70;;;;;;5001600;28;20312;-78
2023/02/09 05:29:30;;;;;;;;;;;0.70;94.70;;;;;;4987411;28;19921;-77
2023/02/09 05:31:56;;;;;;;;;;;0.70;94.80;;;;;;4994013;28;19952;-78
2023/02/09 05:34:22;;;;;;;;;;;0.90;94.50;;;;;;4995061;28;19924;-80
2023/02/09 05:36:47;;;;;;;;;;;0.80;94.70;;;;;;4999490;28;20675;-81
2023/02/09 05:39:13;;;;;;;;;;;0.80;94.70;;;;;;5002399;28;20876;-76
2023/02/09 05:44:23;;;;;;;;;;;0.80;94.90;;;;;;4999040;28;20727;-79
2023/02/09 05:46:48;;;;;;;;;;;0.80;94.80;;;;;;4997185;28;19913;-76
2023/02/09 05:49:14;;;;;;;;;;;0.80;94.80;;;;;;4997075;28;19920;-79
2023/02/09 05:51:40;;;;;;;;;;;0.90;94.80;;;;;;4993267;28;19924;-79
2023/02/09 05:54:05;;;;;;;;;;;0.70;95.10;;;;;;4991022;28;20320;-77
2023/02/09 05:56:31;;;;;;;;;;;0.70;95.30;;;;;;4996897;28;19952;-81
2023/02/09 05:58:56;;;;;;;;;;;0.70;95.20;;;;;;4998616;28;19948;-79
2023/02/09 06:01:22;;;;;;;;;;;0.60;95.50;;;;;;4988501;28;19922;-78
2023/02/09 06:03:48;;;;;;;;;;;0.50;95.70;;;;;;4992855;28;20012;-78
2023/02/09 06:06:13;;;;;;;;;;;0.60;95.50;;;;;;4993071;28;20020;-77
2023/02/09 06:08:39;;;;;;;;;;;0.50;95.70;;;;;;4996250;28;20043;-78
2023/02/09 06:11:05;;;;;;;;;;;0.40;95.90;;;;;;4998444;28;20471;-78
2023/02/09 06:13:31;;;;;;;;;;;0.40;96.00;;;;;;4997654;28;19952;-78
2023/02/09 06:15:56;;;;;;;;;;;0.30;96.20;;;;;;4995358;28;19914;-79
2023/02/09 06:18:22;;;;;;;;;;;0.30;96.10;;;;;;4997624;28;19913;-79
2023/02/09 06:20:48;;;;;;;;;;;0.30;96.20;;;;;;4991818;28;20706;-77
2023/02/09 06:23:13;;;;;;;;;;;0.30;96.20;;;;;;4998958;28;19961;-77
2023/02/09 06:25:39;;;;;;;;;;;0.40;96.20;;;;;;5000515;28;20387;-77
2023/02/09 06:28:05;;;;;;;;;;;0.30;96.30;;;;;;4989088;28;19914;-80
2023/02/09 06:30:30;;;;;;;;;;;0.30;96.40;;;;;;4994256;28;20686;-77
2023/02/09 06:32:56;;;;;;;;;;;0.30;96.40;;;;;;4999813;28;19923;-79
2023/02/09 06:35:22;;;;;;;;;;;0.30;96.60;;;;;;4992878;28;19909;-79
2023/02/09 06:37:47;;;;;;;;;;;0.20;96.80;;;;;;4984976;28;19971;-80
2023/02/09 06:40:13;;;;;;;;;;;0.20;96.90;;;;;;5001591;28;20000;-80
2023/02/09 06:42:44;;;;;;;;;;;0.10;97.10;;;;;;5003522;28;19957;-78
2023/02/09 06:45:11;;;;;;;;;;;0.00;97.10;;;;;;4984803;28;20393;-81
2023/02/09 06:47:39;;;;;;;;;;;0.10;97.20;;;;;;5002684;28;19989;-81
2023/02/09 06:50:05;;;;;;;;;;;0.00;97.20;;;;;;4994456;28;20675;-77
2023/02/09 06:52:31;;;;;;;;;;;0.00;97.20;;;;;;4998385;28;19921;-80
2023/02/09 06:54:56;;;;;;;;;;;-0.10;97.50;;;;;;4999353;28;20719;-79
2023/02/09 06:57:22;;;;;;;;;;;-0.10;97.60;;;;;;4988570;28;20490;-79
2023/02/09 06:59:48;;;;;;;;;;;-0.10;97.40;;;;;;4992537;28;19917;-80
2023/02/09 07:02:13;;;;;;;;;;;0.00;97.50;;;;;;5001370;28;19927;-79
2023/02/09 07:04:39;;;;;;;;;;;0.00;97.40;;;;;;4994699;28;19916;-78
2023/02/09 07:07:04;;;;;;;;;;;0.00;97.40;;;;;;5002681;28;20687;-78
2023/02/09 07:09:30;;;;;;;;;;;0.00;97.50;;;;;;4993243;28;19913;-82
2023/02/09 07:11:55;;;;;;;;;;;0.00;97.40;;;;;;4990462;28;19995;-79
2023/02/09 07:14:21;;;;;;;;;;;0.10;97.30;;;;;;4977744;28;19913;-81
2023/02/09 07:16:47;;;;;;;;;;;0.10;97.30;;;;;;4993236;28;19913;-79
2023/02/09 07:19:12;;;;;;;;;;;0.10;97.20;;;;;;4992846;28;19953;-82
2023/02/09 07:21:38;;;;;;;;;;;0.20;97.00;;;;;;4990930;28;20365;-79
2023/02/09 07:24:03;;;;;;;;;;;0.20;97.10;;;;;;4995119;28;19953;-77
2023/02/09 07:26:29;;;;;;;;;;;0.30;96.90;;;;;;4990244;28;19914;-76
2023/02/09 07:28:54;;;;;;;;;;;0.70;96.30;;;;;;4991873;28;20415;-79
2023/02/09 07:31:20;;;;;;;;;;;1.20;95.00;;;;;;4999598;28;19933;-79
2023/02/09 07:33:46;;;;;;;;;;;1.60;94.10;;;;;;4998366;28;20025;-79
2023/02/09 07:36:13;;;;;;;;;;;1.80;93.80;;;;;;4997189;28;20729;-78
2023/02/09 07:38:38;;;;;;;;;;;2.10;93.10;;;;;;4995462;28;19918;-77
2023/02/09 07:41:05;;;;;;;;;;;2.20;92.60;;;;;;4995673;28;19914;-80
2023/02/09 07:43:31;;;;;;;;;;;2.30;92.30;;;;;;4997323;28;20542;-78
2023/02/09 07:46:01;;;;;;;;;;;2.40;92.20;;;;;;4998891;28;19924;-79
2023/02/09 07:48:26;;;;;;;;;;;2.50;92.00;;;;;;4999719;28;19920;-79
2023/02/09 07:50:52;;;;;;;;;;;2.60;91.70;;;;;;5001515;28;19917;-77
2023/02/09 07:53:18;;;;;;;;;;;2.70;91.60;;;;;;4991239;28;19921;-80
2023/02/09 07:55:43;;;;;;;;;;;2.80;91.40;;;;;;4990285;28;19948;-78
2023/02/09 07:58:09;;;;;;;;;;;2.70;91.50;;;;;;4992857;28;19948;-78
2023/02/09 08:00:34;;;;;;;;;;;2.70;91.40;;;;;;4997020;28;20672;-79
2023/02/09 08:03:01;;;;;;;;;;;2.90;91.00;;;;;;4976823;28;20266;-79
2023/02/09 08:05:30;;;;;;;;;;;3.10;90.50;;;;;;4998411;28;20769;-78
2023/02/09 08:07:56;;;;;;;;;;;3.30;90.30;;;;;;4998768;28;19959;-79
2023/02/09 08:10:22;;;;;;;;;;;3.40;90.40;;;;;;5000497;28;20317;-81
2023/02/09 08:12:59;;;;;;;;;;;3.50;89.70;;;;;;4998470;28;19917;-80
2023/02/09 08:15:43;;;;;;;;;;;3.70;89.90;;;;;;4996551;28;19917;-82
2023/02/09 08:18:14;;;;;;;;;;;3.90;89.00;;;;;;4997967;28;19913;-79
2023/02/09 08:20:41;;;;;;;;;;;3.90;89.00;;;;;;4999231;28;19913;-80
2023/02/09 08:23:09;;;;;;;;;;;4.00;89.00;;;;;;4997503;28;19922;-80
2023/02/09 08:25:35;;;;;;;;;;;4.20;88.20;;;;;;5000212;28;20168;-80
2023/02/09 08:28:02;;;;;;;;;;;4.20;88.60;;;;;;4999499;28;20313;-81
2023/02/09 08:30:27;;;;;;;;;;;4.20;87.70;;;;;;4976947;28;19921;-82
2023/02/09 08:32:53;;;;;;;;;;;4.40;88.00;;;;;;4997239;28;20439;-79
2023/02/09 08:35:18;;;;;;;;;;;4.40;86.80;;;;;;5002366;28;20417;-78
2023/02/09 08:37:44;;;;;;;;;;;4.40;87.50;;;;;;4998075;28;20040;-81
2023/02/09 08:40:10;;;;;;;;;;;4.50;86.90;;;;;;4997027;28;19921;-79
2023/02/09 08:42:35;;;;;;;;;;;4.60;86.80;;;;;;5003828;28;20110;-79
2023/02/09 08:45:01;;;;;;;;;;;4.70;86.10;;;;;;4998534;28;19925;-80
2023/02/09 08:47:27;;;;;;;;;;;4.70;86.80;;;;;;4991292;28;20397;-79
2023/02/09 08:49:52;;;;;;;;;;;4.90;85.60;;;;;;4999809;28;19976;-82
2023/02/09 08:52:18;;;;;;;;;;;4.90;86.00;;;;;;4976860;28;19921;-79
2023/02/09 08:54:44;;;;;;;;;;;5.10;86.10;;;;;;4990827;28;19914;-81
2023/02/09 08:57:10;;;;;;;;;;;5.10;86.00;;;;;;4982812;28;19979;-79
2023/02/09 08:59:35;;;;;;;;;;;5.30;86.60;;;;;;5001298;28;19913;-80
2023/02/09 09:02:01;;;;;;;;;;;5.30;86.10;;;;;;5002019;28;19948;-77
2023/02/09 09:04:28;;;;;;;;;;;5.30;84.70;;;;;;5002573;28;20709;-82
2023/02/09 09:06:53;;;;;;;;;;;5.40;85.50;;;;;;5002355;28;19920;-79
2023/02/09 09:09:19;;;;;;;;;;;5.50;84.90;;;;;;5001094;28;19914;-78
2023/02/09 09:11:45;;;;;;;;;;;5.60;84.00;;;;;;5001914;28;19991;-79
2023/02/09 09:14:11;;;;;;;;;;;5.70;84.90;;;;;;5000270;28;19913;-81
2023/02/09 09:16:36;;;;;;;;;;;5.90;83.10;;;;;;4998726;28;19967;-81
2023/02/09 09:19:03;;;;;;;;;;;6.00;83.60;;;;;;4994818;28;19913;-80
2023/02/09 09:21:29;;;;;;;;;;;6.20;82.80;;;;;;5000930;28;19947;-78
2023/02/09 09:23:54;;;;;;;;;;;6.40;82.50;;;;;;5001125;28;20202;-79
2023/02/09 09:26:20;;;;;;;;;;;6.30;82.90;;;;;;4998759;28;19913;-79
2023/02/09 09:28:48;;;;;;;;;;;6.60;82.50;;;;;;4998783;28;19917;-79
2023/02/09 09:31:15;;;;;;;;;;;6.80;81.30;;;;;;4997280;28;20012;-80
2023/02/09 09:33:40;;;;;;;;;;;6.90;81.50;;;;;;4999816;28;19987;-78
2023/02/09 09:36:06;;;;;;;;;;;6.90;80.40;;;;;;4995894;28;20544;-79
2023/02/09 09:38:33;;;;;;;;;;;7.10;80.30;;;;;;5001131;28;20035;-79
2023/02/09 09:40:59;;;;;;;;;;;7.20;79.50;;;;;;5000881;28;19921;-81
2023/02/09 09:43:31;;;;;;;;;;;7.10;80.60;;;;;;5000617;28;19960;-79
2023/02/09 09:45:57;;;;;;;;;;;6.90;80.20;;;;;;4987873;28;19910;-79
2023/02/09 09:48:24;;;;;;;;;;;6.90;80.00;;;;;;5001400;28;19972;-83
2023/02/09 09:50:55;;;;;;;;;;;6.90;78.60;;;;;;5001158;28;20024;-81
2023/02/09 09:53:27;;;;;;;;;;;6.90;80.00;;;;;;4995919;28;19913;-78
2023/02/09 09:55:55;;;;;;;;;;;7.00;79.70;;;;;;4999461;28;19909;-78
2023/02/09 09:58:21;;;;;;;;;;;7.00;78.70;;;;;;4994978;28;19955;-79
2023/02/09 10:00:47;;;;;;;;;;;7.10;80.00;;;;;;5000542;28;19929;-84
2023/02/09 10:03:15;;;;;;;;;;;7.20;78.80;;;;;;4999550;28;19914;-82
2023/02/09 10:05:41;;;;;;;;;;;7.50;80.50;;;;;;5000288;28;19913;-80
2023/02/09 10:08:09;;;;;;;;;;;7.40;79.00;;;;;;4999037;28;19913;-82
2023/02/09 10:10:50;;;;;;;;;;;7.20;77.90;;;;;;4999246;28;19921;-81
2023/02/09 10:13:33;;;;;;;;;;;7.40;80.10;;;;;;4999857;28;20048;-80
2023/02/09 10:25:37;;;;;;;;;;;7.60;78.30;;;;;;4996749;28;19940;-82
2023/02/09 10:28:25;;;;;;;;;;;7.60;77.20;;;;;;4998504;28;20708;-82
2023/02/09 10:30:52;;;;;;;;;;;7.70;77.90;;;;;;4993963;28;19918;-79
2023/02/09 10:33:18;;;;;;;;;;;7.80;77.40;;;;;;4993341;28;19929;-84
2023/02/09 10:35:52;;;;;;;;;;;7.90;77.90;;;;;;4996128;28;19913;-81
2023/02/09 10:38:20;;;;;;;;;;;7.80;75.90;;;;;;4999320;28;19913;-81
2023/02/09 10:40:46;;;;;;;;;;;8.10;79.30;;;;;;4998792;28;19913;-82
2023/02/09 10:43:31;;;;;;;;;;;8.20;78.30;;;;;;5001610;28;19937;-82
2023/02/09 10:46:01;;;;;;;;;;;8.30;79.10;;;;;;4991203;28;19913;-81
2023/02/09 10:48:27;;;;;;;;;;;8.10;76.90;;;;;;5001837;28;19916;-82
2023/02/09 10:50:57;;;;;;;;;;;8.20;77.80;;;;;;4972723;28;19940;-81
2023/02/09 10:53:23;;;;;;;;;;;8.20;77.40;;;;;;4999847;28;19914;-83
2023/02/09 10:55:49;;;;;;;;;;;8.30;76.50;;;;;;4986063;28;19910;-82
2023/02/09 10:58:23;;;;;;;;;;;8.30;77.20;;;;;;5002386;28;20614;-82
2023/02/09 11:00:51;;;;;;;;;;;8.40;78.00;;;;;;4991697;28;19931;-80
2023/02/09 11:03:18;;;;;;;;;;;8.40;78.20;;;;;;4992688;28;19909;-81
2023/02/09 11:05:46;;;;;;;;;;;8.40;78.20;;;;;;4989669;28;19910;-81
2023/02/09 11:08:11;;;;;;;;;;;8.60;80.20;;;;;;4995476;28;19910;-82
2023/02/09 11:10:44;;;;;;;;;;;8.50;76.10;;;;;;4969874;28;19913;-81
2023/02/09 11:13:15;;;;;;;;;;;8.40;77.20;;;;;;4983597;28;20024;-81
2023/02/09 11:15:45;;;;;;;;;;;8.50;77.70;;;;;;4995669;28;19915;-83
2023/02/09 11:18:17;;;;;;;;;;;8.40;77.70;;;;;;4996860;28;19916;-80
2023/02/09 11:20:48;;;;;;;;;;;8.40;77.20;;;;;;4987109;28;19941;-81
2023/02/09 11:23:32;;;;;;;;;;;8.50;76.50;;;;;;4983207;28;19921;-81
2023/02/09 11:25:58;;;;;;;;;;;8.50;76.10;;;;;;4985807;28;19914;-80
2023/02/09 11:28:42;;;;;;;;;;;8.40;75.50;;;;;;4983261;28;19933;-80
2023/02/09 11:31:35;;;;;;;;;;;8.30;75.90;;;;;;4995223;28;19913;-81
2023/02/09 11:34:20;;;;;;;;;;;8.30;76.40;;;;;;4983141;28;19920;-81
2023/02/09 11:36:55;;;;;;;;;;;8.40;74.70;;;;;;4995280;28;19909;-81
2023/02/09 11:39:24;;;;;;;;;;;8.50;74.50;;;;;;4990436;28;20474;-80
2023/02/09 11:44:45;;;;;;;;;;;8.90;73.60;;;;;;4995335;28;19991;-81
2023/02/09 11:47:16;;;;;;;;;;;8.70;72.20;;;;;;4982783;28;19909;-80
2023/02/09 11:49:47;;;;;;;;;;;9.00;73.80;;;;;;4995292;28;19921;-81
2023/02/09 11:52:14;;;;;;;;;;;8.80;73.30;;;;;;4998507;28;19921;-80
2023/02/09 11:54:44;;;;;;;;;;;8.60;72.40;;;;;;4986600;28;19955;-82
2023/02/09 11:57:20;;;;;;;;;;;8.50;75.20;;;;;;4991524;28;20019;-82
2023/02/09 11:59:55;;;;;;;;;;;8.90;78.60;;;;;;4983258;28;19910;-84
2023/02/09 12:02:39;;;;;;;;;;;9.00;78.30;;;;;;4990698;28;19921;-81
2023/02/09 12:05:07;;;;;;;;;;;8.80;78.40;;;;;;4994573;28;19909;-81
2023/02/09 12:07:40;;;;;;;;;;;8.70;77.40;;;;;;4976568;28;20361;-81
2023/02/09 12:10:14;;;;;;;;;;;8.40;76.20;;;;;;5005040;28;20011;-80
2023/02/09 12:12:47;;;;;;;;;;;8.40;77.50;;;;;;4997743;28;19926;-82
2023/02/09 12:15:13;;;;;;;;;;;8.40;78.30;;;;;;4989134;28;19910;-81
2023/02/09 12:17:41;;;;;;;;;;;8.40;78.40;;;;;;5002547;28;19917;-80
2023/02/09 12:20:19;;;;;;;;;;;8.20;78.30;;;;;;5002427;28;19909;-80
2023/02/09 12:22:55;;;;;;;;;;;8.30;79.00;;;;;;4976434;28;19920;-80
2023/02/09 12:25:24;;;;;;;;;;;8.30;78.80;;;;;;4998757;28;20641;-81
2023/02/09 12:28:07;;;;;;;;;;;8.30;79.10;;;;;;5004805;28;19909;-81
2023/02/09 12:30:39;;;;;;;;;;;8.00;78.40;;;;;;4999988;28;20365;-81
2023/02/09 12:33:16;;;;;;;;;;;7.90;78.70;;;;;;5001974;28;19995;-82
2023/02/09 12:35:42;;;;;;;;;;;7.80;78.90;;;;;;4986430;28;19910;-82
2023/02/09 12:38:16;;;;;;;;;;;7.80;78.70;;;;;;4994114;28;19914;-81
2023/02/09 12:40:41;;;;;;;;;;;7.70;78.40;;;;;;4998134;28;20484;-82
2023/02/09 12:43:12;;;;;;;;;;;7.50;77.70;;;;;;4998832;28;19920;-81
2023/02/09 12:45:40;;;;;;;;;;;7.40;79.00;;;;;;4985876;28;20691;-80
2023/02/09 12:48:08;;;;;;;;;;;7.50;79.40;;;;;;5001319;28;19910;-81
2023/02/09 12:50:45;;;;;;;;;;;7.40;78.60;;;;;;5000363;28;19913;-81
2023/02/09 12:53:22;;;;;;;;;;;7.50;78.40;;;;;;4990454;28;19983;-80
2023/02/09 12:56:00;;;;;;;;;;;7.70;77.40;;;;;;4979881;28;19968;-82
2023/02/09 12:58:35;;;;;;;;;;;7.90;77.50;;;;;;4992915;28;19910;-80
2023/02/09 13:01:00;;;;;;;;;;;8.00;71.30;;;;;;4998452;28;19961;-81
2023/02/09 13:03:27;;;;;;;;;;;8.20;70.60;;;;;;4986969;28;20256;-80
2023/02/09 13:05:55;;;;;;;;;;;8.40;73.20;;;;;;4989305;28;19944;-83
2023/02/09 13:08:26;;;;;;;;;;;8.50;71.70;;;;;;4994766;28;19956;-80
2023/02/09 13:10:55;;;;;;;;;;;8.40;71.20;;;;;;4985686;28;19914;-81
2023/02/09 13:13:34;;;;;;;;;;;8.50;71.00;;;;;;4986067;28;19913;-80
2023/02/09 13:16:01;;;;;;;;;;;8.50;67.60;;;;;;4986268;28;19916;-80
2023/02/09 13:18:46;;;;;;;;;;;8.30;65.50;;;;;;4996023;28;19936;-80
2023/02/09 13:21:14;;;;;;;;;;;8.40;66.20;;;;;;4991479;28;20480;-81
2023/02/09 13:23:46;;;;;;;;;;;8.50;69.40;;;;;;4985954;28;20031;-82
2023/02/09 13:26:20;;;;;;;;;;;8.60;67.40;;;;;;5001426;28;19922;-81
2023/02/09 13:28:46;;;;;;;;;;;8.70;68.40;;;;;;4986282;28;20396;-82
2023/02/09 13:31:16;;;;;;;;;;;8.60;65.00;;;;;;4997674;28;20013;-81
2023/02/09 13:33:47;;;;;;;;;;;8.50;65.00;;;;;;4985211;28;20384;-82
2023/02/09 13:36:22;;;;;;;;;;;8.50;63.00;;;;;;4985882;28;19909;-80
2023/02/09 13:38:48;;;;;;;;;;;8.40;63.60;;;;;;4999055;28;19983;-81
2023/02/09 13:41:30;;;;;;;;;;;8.60;63.30;;;;;;4996132;28;19909;-81
2023/02/09 13:43:56;;;;;;;;;;;8.70;63.20;;;;;;4994452;28;19916;-79
2023/02/09 13:46:23;;;;;;;;;;;8.70;60.30;;;;;;5002144;28;19909;-81
2023/02/09 13:48:49;;;;;;;;;;;8.70;60.70;;;;;;4994148;28;19913;-80
2023/02/09 13:51:16;;;;;;;;;;;9.00;62.00;;;;;;4999189;28;19917;-81
2023/02/09 13:53:53;;;;;;;;;;;9.10;62.60;;;;;;5001747;28;19914;-80
2023/02/09 13:56:19;;;;;;;;;;;9.00;61.80;;;;;;4979948;28;19909;-80
2023/02/09 13:58:46;;;;;;;;;;;9.30;62.40;;;;;;4988382;28;19909;-83
2023/02/09 14:01:14;;;;;;;;;;;9.60;64.80;;;;;;4993053;28;20634;-81
2023/02/09 14:03:42;;;;;;;;;;;9.70;64.70;;;;;;4986803;28;19926;-80
2023/02/09 14:06:16;;;;;;;;;;;9.60;63.30;;;;;;4997707;28;19963;-81
2023/02/09 14:08:42;;;;;;;;;;;9.60;65.30;;;;;;4989191;28;19910;-80
2023/02/09 14:11:19;;;;;;;;;;;9.50;63.60;;;;;;4987786;28;19917;-81
2023/02/09 14:13:47;;;;;;;;;;;9.60;63.80;;;;;;4999422;28;19919;-84
2023/02/09 14:16:14;;;;;;;;;;;9.60;62.10;;;;;;5001851;28;19941;-80
2023/02/09 14:18:59;;;;;;;;;;;9.90;63.30;;;;;;4999027;28;20016;-81
2023/02/09 14:21:28;;;;;;;;;;;9.90;62.20;;;;;;4991076;28;19915;-83
2023/02/09 14:23:57;;;;;;;;;;;9.70;61.70;;;;;;5002513;28;19977;-80
2023/02/09 14:26:33;;;;;;;;;;;9.50;61.80;;;;;;4994715;28;19921;-80
2023/02/09 14:29:20;;;;;;;;;;;9.40;61.20;;;;;;4991442;28;19983;-80
2023/02/09 14:31:48;;;;;;;;;;;9.30;64.30;;;;;;4987983;28;19913;-83
2023/02/09 14:34:27;;;;;;;;;;;8.90;63.70;;;;;;4996358;28;19916;-81
2023/02/09 14:36:54;;;;;;;;;;;8.80;65.60;;;;;;4986275;28;19949;-81
2023/02/09 14:39:20;;;;;;;;;;;8.70;65.10;;;;;;4995590;28;19909;-84
2023/02/09 14:41:58;;;;;;;;;;;8.50;63.60;;;;;;4986009;28;19916;-82
2023/02/09 14:44:24;;;;;;;;;;;8.50;64.70;;;;;;4995527;28;19989;-80
2023/02/09 14:46:56;;;;;;;;;;;8.40;65.60;;;;;;4995919;28;20005;-84
2023/02/09 14:49:22;;;;;;;;;;;8.30;63.40;;;;;;4983894;28;19916;-81
2023/02/09 14:51:49;;;;;;;;;;;8.30;64.20;;;;;;4992639;28;20514;-80
2023/02/09 14:54:17;;;;;;;;;;;8.30;63.60;;;;;;4995084;28;19964;-81
2023/02/09 14:56:44;;;;;;;;;;;8.30;64.20;;;;;;4998512;28;19909;-80
2023/02/09 14:59:13;;;;;;;;;;;8.20;61.90;;;;;;4995917;28;19906;-80
2023/02/09 15:01:39;;;;;;;;;;;8.10;62.40;;;;;;4996423;28;19925;-80
2023/02/09 15:04:04;;;;;;;;;;;8.10;63.60;;;;;;4984502;28;19967;-80
2023/02/09 15:06:33;;;;;;;;;;;8.10;63.20;;;;;;4990112;28;19951;-83